sensor_id;sensor_type;location;lat;lon;timestamp;pressure;altitude;pressure_sealevel;temperature;humidity
44044;BME280;29709;52.396;16.796;2023-09-12T00:02:35;101360.99;;;18.80;76.52
44044;BME280;29709;52.396;16.796;2023-09-12T00:05:53;101362.28;;;18.77;76.48
44044;BME280;29709;52.396;16.796;2023-09-12T00:09:06;101359.45;;;18.70;76.38
44044;BME280;29709;52.396;16.796;2023-09-12T00:12:23;101355.73;;;18.63;76.16
44044;BME280;29709;52.396;16.796;2023-09-12T00:15:37;101356.38;;;18.59;74.73
44044;BME280;29709;52.396;16.796;2023-09-12T00:18:50;101355.05;;;18.48;76.69
44044;BME280;29709;52.396;16.796;2023-09-12T00:22:04;101356.12;;;18.47;76.04
44044;BME280;29709;52.396;16.796;2023-09-12T00:25:17;101356.55;;;18.51;76.84
44044;BME280;29709;52.396;16.796;2023-09-12T00:28:30;101356.12;;;18.47;76.90
44044;BME280;29709;52.396;16.796;2023-09-12T00:31:44;101350.55;;;18.47;76.98
44044;BME280;29709;52.396;16.796;2023-09-12T00:34:57;101350.76;;;18.45;76.93
44044;BME280;29709;52.396;16.796;2023-09-12T00:38:11;101356.92;;;18.41;73.56
44044;BME280;29709;52.396;16.796;2023-09-12T00:41:24;101350.88;;;18.31;74.15
44044;BME280;29709;52.396;16.796;2023-09-12T00:44:37;101360.45;;;18.22;77.09
44044;BME280;29709;52.396;16.796;2023-09-12T00:47:51;101356.80;;;18.14;77.03
44044;BME280;29709;52.396;16.796;2023-09-12T00:51:07;101362.09;;;18.09;77.88
44044;BME280;29709;52.396;16.796;2023-09-12T00:54:20;101357.65;;;18.15;77.77
44044;BME280;29709;52.396;16.796;2023-09-12T00:57:34;101363.86;;;18.17;78.18
44044;BME280;29709;52.396;16.796;2023-09-12T01:00:48;101355.10;;;18.20;77.21
44044;BME280;29709;52.396;16.796;2023-09-12T01:04:02;101352.11;;;18.22;76.85
44044;BME280;29709;52.396;16.796;2023-09-12T01:07:15;101348.26;;;18.23;77.18
44044;BME280;29709;52.396;16.796;2023-09-12T01:10:28;101351.72;;;18.25;78.01
44044;BME280;29709;52.396;16.796;2023-09-12T01:13:42;101350.44;;;18.27;77.09
44044;BME280;29709;52.396;16.796;2023-09-12T01:16:56;101363.02;;;18.23;77.37
44044;BME280;29709;52.396;16.796;2023-09-12T01:20:19;101347.17;;;18.17;76.91
44044;BME280;29709;52.396;16.796;2023-09-12T01:30:27;101347.96;;;18.04;77.57
44044;BME280;29709;52.396;16.796;2023-09-12T01:33:41;101356.04;;;17.99;76.89
44044;BME280;29709;52.396;16.796;2023-09-12T01:36:54;101362.43;;;17.93;77.43
44044;BME280;29709;52.396;16.796;2023-09-12T01:40:09;101364.36;;;17.93;77.39
44044;BME280;29709;52.396;16.796;2023-09-12T01:43:26;101365.39;;;17.92;77.34
44044;BME280;29709;52.396;16.796;2023-09-12T01:46:41;101364.09;;;17.87;76.43
44044;BME280;29709;52.396;16.796;2023-09-12T01:49:56;101367.07;;;17.86;77.47
44044;BME280;29709;52.396;16.796;2023-09-12T01:53:11;101358.88;;;17.78;77.70
44044;BME280;29709;52.396;16.796;2023-09-12T01:56:25;101372.20;;;17.82;77.12
44044;BME280;29709;52.396;16.796;2023-09-12T02:03:05;101358.67;;;17.79;77.36
44044;BME280;29709;52.396;16.796;2023-09-12T02:06:18;101364.20;;;17.73;74.70
44044;BME280;29709;52.396;16.796;2023-09-12T02:09:31;101353.63;;;17.68;77.67
44044;BME280;29709;52.396;16.796;2023-09-12T02:12:44;101356.24;;;17.70;77.42
44044;BME280;29709;52.396;16.796;2023-09-12T02:16:01;101357.48;;;17.67;78.01
44044;BME280;29709;52.396;16.796;2023-09-12T02:19:16;101361.97;;;17.68;76.06
44044;BME280;29709;52.396;16.796;2023-09-12T02:22:29;101359.95;;;17.55;77.51
44044;BME280;29709;52.396;16.796;2023-09-12T02:25:42;101368.69;;;17.52;78.16
44044;BME280;29709;52.396;16.796;2023-09-12T02:28:55;101360.16;;;17.54;77.81
44044;BME280;29709;52.396;16.796;2023-09-12T02:32:09;101359.88;;;17.49;77.89
44044;BME280;29709;52.396;16.796;2023-09-12T02:35:22;101360.74;;;17.49;76.73
44044;BME280;29709;52.396;16.796;2023-09-12T02:38:35;101368.42;;;17.47;78.07
44044;BME280;29709;52.396;16.796;2023-09-12T02:41:49;101368.63;;;17.46;77.17
44044;BME280;29709;52.396;16.796;2023-09-12T02:45:02;101368.17;;;17.42;75.50
44044;BME280;29709;52.396;16.796;2023-09-12T02:48:16;101367.65;;;17.32;77.54
44044;BME280;29709;52.396;16.796;2023-09-12T02:51:29;101370.14;;;17.27;78.67
44044;BME280;29709;52.396;16.796;2023-09-12T02:54:42;101361.61;;;17.28;78.15
44044;BME280;29709;52.396;16.796;2023-09-12T02:57:55;101365.08;;;17.30;78.18
44044;BME280;29709;52.396;16.796;2023-09-12T03:01:14;101363.80;;;17.33;78.81
44044;BME280;29709;52.396;16.796;2023-09-12T03:04:29;101364.88;;;17.32;76.65
44044;BME280;29709;52.396;16.796;2023-09-12T03:07:42;101357.65;;;17.16;78.59
44044;BME280;29709;52.396;16.796;2023-09-12T03:10:57;101365.08;;;17.09;78.61
44044;BME280;29709;52.396;16.796;2023-09-12T03:14:10;101365.52;;;17.13;80.05
44044;BME280;29709;52.396;16.796;2023-09-12T03:17:23;101360.63;;;17.15;79.44
44044;BME280;29709;52.396;16.796;2023-09-12T03:20:40;101360.91;;;17.20;79.11
44044;BME280;29709;52.396;16.796;2023-09-12T03:23:53;101359.64;;;17.22;79.47
44044;BME280;29709;52.396;16.796;2023-09-12T03:27:06;101360.71;;;17.21;79.32
44044;BME280;29709;52.396;16.796;2023-09-12T03:30:20;101362.02;;;17.25;79.37
44044;BME280;29709;52.396;16.796;2023-09-12T03:33:34;101357.11;;;17.27;79.52
44044;BME280;29709;52.396;16.796;2023-09-12T03:36:47;101354.99;;;17.29;78.31
44044;BME280;29709;52.396;16.796;2023-09-12T03:40:01;101352.63;;;17.26;78.76
44044;BME280;29709;52.396;16.796;2023-09-12T03:43:15;101355.80;;;17.23;79.41
44044;BME280;29709;52.396;16.796;2023-09-12T03:46:28;101361.94;;;17.19;78.53
44044;BME280;29709;52.396;16.796;2023-09-12T03:49:42;101358.30;;;17.18;79.02
44044;BME280;29709;52.396;16.796;2023-09-12T03:52:55;101360.02;;;17.19;80.25
44044;BME280;29709;52.396;16.796;2023-09-12T03:56:08;101358.78;;;17.22;79.67
44044;BME280;29709;52.396;16.796;2023-09-12T03:59:25;101355.16;;;17.21;79.23
44044;BME280;29709;52.396;16.796;2023-09-12T04:02:38;101356.67;;;17.24;79.21
44044;BME280;29709;52.396;16.796;2023-09-12T04:05:51;101357.32;;;17.26;79.17
44044;BME280;29709;52.396;16.796;2023-09-12T04:09:05;101351.97;;;17.24;79.57
44044;BME280;29709;52.396;16.796;2023-09-12T04:12:19;101350.04;;;17.25;79.92
44044;BME280;29709;52.396;16.796;2023-09-12T04:15:32;101350.45;;;17.22;79.58
44044;BME280;29709;52.396;16.796;2023-09-12T04:18:46;101344.04;;;17.21;79.02
44044;BME280;29709;52.396;16.796;2023-09-12T04:21:59;101352.95;;;17.17;78.57
44044;BME280;29709;52.396;16.796;2023-09-12T04:25:12;101348.58;;;17.08;79.49
44044;BME280;29709;52.396;16.796;2023-09-12T04:28:26;101351.55;;;17.06;79.98
44044;BME280;29709;52.396;16.796;2023-09-12T04:31:39;101349.27;;;17.10;79.60
44044;BME280;29709;52.396;16.796;2023-09-12T04:34:52;101346.95;;;17.13;80.02
44044;BME280;29709;52.396;16.796;2023-09-12T04:38:06;101343.96;;;17.15;81.16
44044;BME280;29709;52.396;16.796;2023-09-12T04:41:19;101345.96;;;17.21;81.06
44044;BME280;29709;52.396;16.796;2023-09-12T04:44:36;101353.89;;;17.24;80.96
44044;BME280;29709;52.396;16.796;2023-09-12T04:47:50;101350.71;;;17.27;80.42
44044;BME280;29709;52.396;16.796;2023-09-12T04:51:04;101351.63;;;17.34;80.11
44044;BME280;29709;52.396;16.796;2023-09-12T04:54:18;101351.02;;;17.39;80.26
44044;BME280;29709;52.396;16.796;2023-09-12T04:57:31;101349.38;;;17.44;82.09
44044;BME280;29709;52.396;16.796;2023-09-12T05:00:45;101345.41;;;17.53;81.73
44044;BME280;29709;52.396;16.796;2023-09-12T05:03:58;101345.91;;;17.64;80.36
44044;BME280;29709;52.396;16.796;2023-09-12T05:07:12;101355.00;;;17.72;80.40
44044;BME280;29709;52.396;16.796;2023-09-12T05:10:25;101358.67;;;17.79;81.42
44044;BME280;29709;52.396;16.796;2023-09-12T05:13:38;101352.55;;;17.91;80.77
44044;BME280;29709;52.396;16.796;2023-09-12T05:16:52;101349.20;;;18.02;81.36
44044;BME280;29709;52.396;16.796;2023-09-12T05:20:09;101350.76;;;18.11;77.29
44044;BME280;29709;52.396;16.796;2023-09-12T05:23:23;101353.64;;;18.24;81.42
44044;BME280;29709;52.396;16.796;2023-09-12T05:26:37;101360.34;;;18.36;81.35
44044;BME280;29709;52.396;16.796;2023-09-12T05:29:50;101367.63;;;18.44;79.34
44044;BME280;29709;52.396;16.796;2023-09-12T05:33:03;101360.84;;;18.53;79.46
44044;BME280;29709;52.396;16.796;2023-09-12T05:36:17;101366.09;;;18.69;80.04
44044;BME280;29709;52.396;16.796;2023-09-12T05:39:30;101363.60;;;18.94;79.60
44044;BME280;29709;52.396;16.796;2023-09-12T05:42:44;101360.48;;;19.30;78.86
44044;BME280;29709;52.396;16.796;2023-09-12T05:45:57;101362.91;;;19.60;78.39
44044;BME280;29709;52.396;16.796;2023-09-12T05:49:11;101368.68;;;19.92;76.86
44044;BME280;29709;52.396;16.796;2023-09-12T05:52:25;101360.48;;;20.16;76.50
44044;BME280;29709;52.396;16.796;2023-09-12T05:55:38;101360.45;;;20.43;74.96
44044;BME280;29709;52.396;16.796;2023-09-12T05:58:51;101363.98;;;20.70;74.16
44044;BME280;29709;52.396;16.796;2023-09-12T06:02:05;101370.54;;;20.95;73.07
44044;BME280;29709;52.396;16.796;2023-09-12T06:05:20;101369.35;;;21.16;72.28
44044;BME280;29709;52.396;16.796;2023-09-12T06:08:37;101387.94;;;21.36;71.42
44044;BME280;29709;52.396;16.796;2023-09-12T06:11:56;101375.52;;;21.56;71.42
44044;BME280;29709;52.396;16.796;2023-09-12T06:15:10;101368.91;;;21.76;70.93
44044;BME280;29709;52.396;16.796;2023-09-12T06:18:27;101372.63;;;21.95;70.69
44044;BME280;29709;52.396;16.796;2023-09-12T06:21:44;101374.18;;;22.15;70.16
44044;BME280;29709;52.396;16.796;2023-09-12T06:24:57;101379.44;;;22.30;69.06
44044;BME280;29709;52.396;16.796;2023-09-12T06:28:11;101374.53;;;22.44;69.50
44044;BME280;29709;52.396;16.796;2023-09-12T06:31:24;101371.49;;;22.64;69.17
44044;BME280;29709;52.396;16.796;2023-09-12T06:34:37;101378.34;;;22.86;68.79
44044;BME280;29709;52.396;16.796;2023-09-12T06:37:50;101374.02;;;23.02;68.04
44044;BME280;29709;52.396;16.796;2023-09-12T06:41:04;101379.59;;;23.20;67.73
44044;BME280;29709;52.396;16.796;2023-09-12T06:44:17;101386.50;;;23.36;67.29
44044;BME280;29709;52.396;16.796;2023-09-12T06:47:32;101388.14;;;23.55;66.87
44044;BME280;29709;52.396;16.796;2023-09-12T06:50:45;101384.91;;;23.70;66.03
44044;BME280;29709;52.396;16.796;2023-09-12T06:53:58;101383.96;;;23.88;65.26
44044;BME280;29709;52.396;16.796;2023-09-12T06:57:13;101382.37;;;24.04;64.23
44044;BME280;29709;52.396;16.796;2023-09-12T07:00:26;101376.65;;;24.10;63.32
44044;BME280;29709;52.396;16.796;2023-09-12T07:03:39;101390.20;;;24.25;63.23
44044;BME280;29709;52.396;16.796;2023-09-12T07:06:54;101388.64;;;24.41;62.93
44044;BME280;29709;52.396;16.796;2023-09-12T07:10:07;101385.81;;;24.53;60.99
44044;BME280;29709;52.396;16.796;2023-09-12T07:13:21;101376.24;;;24.65;62.08
44044;BME280;29709;52.396;16.796;2023-09-12T07:16:35;101374.48;;;24.88;61.07
44044;BME280;29709;52.396;16.796;2023-09-12T07:19:49;101384.12;;;25.03;60.24
44044;BME280;29709;52.396;16.796;2023-09-12T07:23:04;101380.49;;;25.20;60.77
44044;BME280;29709;52.396;16.796;2023-09-12T07:26:19;101385.32;;;25.36;59.07
44044;BME280;29709;52.396;16.796;2023-09-12T07:29:33;101375.96;;;25.47;59.14
44044;BME280;29709;52.396;16.796;2023-09-12T07:32:46;101384.00;;;25.55;58.12
44044;BME280;29709;52.396;16.796;2023-09-12T07:35:59;101386.73;;;25.67;59.08
44044;BME280;29709;52.396;16.796;2023-09-12T07:39:16;101381.98;;;25.84;58.17
44044;BME280;29709;52.396;16.796;2023-09-12T07:42:29;101383.44;;;26.04;58.79
44044;BME280;29709;52.396;16.796;2023-09-12T07:45:44;101384.45;;;26.14;57.95
44044;BME280;29709;52.396;16.796;2023-09-12T07:48:57;101379.44;;;26.16;57.90
44044;BME280;29709;52.396;16.796;2023-09-12T07:52:11;101379.32;;;26.28;57.38
44044;BME280;29709;52.396;16.796;2023-09-12T07:55:24;101383.77;;;26.41;56.24
44044;BME280;29709;52.396;16.796;2023-09-12T07:58:38;101380.30;;;26.56;57.13
44044;BME280;29709;52.396;16.796;2023-09-12T08:01:52;101373.45;;;26.68;56.54
44044;BME280;29709;52.396;16.796;2023-09-12T08:05:05;101371.35;;;26.81;55.33
44044;BME280;29709;52.396;16.796;2023-09-12T08:08:20;101371.27;;;26.97;55.53
44044;BME280;29709;52.396;16.796;2023-09-12T08:11:34;101377.40;;;27.11;54.54
44044;BME280;29709;52.396;16.796;2023-09-12T08:14:47;101376.39;;;27.22;55.33
44044;BME280;29709;52.396;16.796;2023-09-12T08:18:00;101375.96;;;27.36;54.65
44044;BME280;29709;52.396;16.796;2023-09-12T08:21:14;101377.77;;;27.47;53.29
44044;BME280;29709;52.396;16.796;2023-09-12T08:24:29;101379.58;;;27.58;52.59
44044;BME280;29709;52.396;16.796;2023-09-12T08:27:43;101370.66;;;27.66;53.39
44044;BME280;29709;52.396;16.796;2023-09-12T08:30:57;101378.19;;;27.87;53.24
44044;BME280;29709;52.396;16.796;2023-09-12T08:34:10;101377.12;;;27.94;51.64
44044;BME280;29709;52.396;16.796;2023-09-12T08:37:58;101378.56;;;28.01;50.71
44044;BME280;29709;52.396;16.796;2023-09-12T08:41:11;101373.62;;;28.18;52.30
44044;BME280;29709;52.396;16.796;2023-09-12T08:44:24;101377.17;;;28.36;51.62
44044;BME280;29709;52.396;16.796;2023-09-12T08:47:41;101383.76;;;28.52;50.43
44044;BME280;29709;52.396;16.796;2023-09-12T08:50:54;101380.65;;;28.53;48.05
44044;BME280;29709;52.396;16.796;2023-09-12T08:54:08;101378.99;;;28.57;50.91
44044;BME280;29709;52.396;16.796;2023-09-12T08:57:22;101379.39;;;28.81;50.85
44044;BME280;29709;52.396;16.796;2023-09-12T09:00:38;101374.94;;;28.95;49.67
44044;BME280;29709;52.396;16.796;2023-09-12T09:03:51;101376.67;;;29.01;48.44
44044;BME280;29709;52.396;16.796;2023-09-12T09:07:05;101376.42;;;29.13;48.58
44044;BME280;29709;52.396;16.796;2023-09-12T09:13:57;101381.85;;;29.35;46.17
44044;BME280;29709;52.396;16.796;2023-09-12T09:17:10;101371.45;;;29.56;47.05
44044;BME280;29709;52.396;16.796;2023-09-12T09:20:32;101373.73;;;29.74;45.32
44044;BME280;29709;52.396;16.796;2023-09-12T09:23:50;101372.87;;;29.79;42.65
44044;BME280;29709;52.396;16.796;2023-09-12T09:27:04;101375.42;;;29.80;44.86
44044;BME280;29709;52.396;16.796;2023-09-12T09:30:17;101378.55;;;29.89;44.77
44044;BME280;29709;52.396;16.796;2023-09-12T09:33:35;101378.84;;;30.03;45.19
44044;BME280;29709;52.396;16.796;2023-09-12T09:36:53;101380.55;;;30.24;44.66
44044;BME280;29709;52.396;16.796;2023-09-12T09:40:08;101368.34;;;30.34;44.80
44044;BME280;29709;52.396;16.796;2023-09-12T09:43:23;101367.47;;;30.38;44.10
44044;BME280;29709;52.396;16.796;2023-09-12T09:46:38;101369.16;;;30.44;42.76
44044;BME280;29709;52.396;16.796;2023-09-12T09:49:52;101367.15;;;30.55;43.37
44044;BME280;29709;52.396;16.796;2023-09-12T09:53:05;101361.48;;;30.50;43.31
44044;BME280;29709;52.396;16.796;2023-09-12T09:56:22;101365.13;;;30.71;43.89
44044;BME280;29709;52.396;16.796;2023-09-12T09:59:36;101360.25;;;30.87;42.37
44044;BME280;29709;52.396;16.796;2023-09-12T10:02:51;101357.07;;;30.98;41.71
44044;BME280;29709;52.396;16.796;2023-09-12T10:06:08;101358.47;;;31.01;41.29
44044;BME280;29709;52.396;16.796;2023-09-12T10:09:26;101347.95;;;31.07;41.47
44044;BME280;29709;52.396;16.796;2023-09-12T10:16:04;101342.43;;;31.30;41.83
44044;BME280;29709;52.396;16.796;2023-09-12T10:19:19;101348.29;;;31.44;41.26
44044;BME280;29709;52.396;16.796;2023-09-12T10:22:39;101351.36;;;31.53;40.15
44044;BME280;29709;52.396;16.796;2023-09-12T10:25:56;101342.84;;;31.53;39.55
44044;BME280;29709;52.396;16.796;2023-09-12T10:29:12;101338.52;;;31.60;39.03
44044;BME280;29709;52.396;16.796;2023-09-12T10:32:28;101349.63;;;31.57;39.19
44044;BME280;29709;52.396;16.796;2023-09-12T10:35:45;101341.94;;;31.57;39.25
44044;BME280;29709;52.396;16.796;2023-09-12T10:39:00;101343.93;;;31.57;38.59
44044;BME280;29709;52.396;16.796;2023-09-12T10:42:16;101338.24;;;31.57;39.27
44044;BME280;29709;52.396;16.796;2023-09-12T10:48:50;101335.76;;;31.90;39.39
44044;BME280;29709;52.396;16.796;2023-09-12T10:52:06;101342.23;;;31.95;36.90
44044;BME280;29709;52.396;16.796;2023-09-12T10:55:19;101336.78;;;31.99;36.78
44044;BME280;29709;52.396;16.796;2023-09-12T10:58:33;101340.73;;;32.03;37.50
44044;BME280;29709;52.396;16.796;2023-09-12T11:01:46;101332.96;;;32.13;35.91
44044;BME280;29709;52.396;16.796;2023-09-12T11:05:05;101333.16;;;32.22;36.53
44044;BME280;29709;52.396;16.796;2023-09-12T11:08:19;101333.26;;;32.12;36.78
44044;BME280;29709;52.396;16.796;2023-09-12T11:11:32;101340.44;;;32.04;34.85
44044;BME280;29709;52.396;16.796;2023-09-12T11:18:13;101327.80;;;32.15;36.94
44044;BME280;29709;52.396;16.796;2023-09-12T11:21:34;101331.93;;;32.33;35.75
44044;BME280;29709;52.396;16.796;2023-09-12T11:24:47;101335.81;;;32.42;36.79
44044;BME280;29709;52.396;16.796;2023-09-12T11:28:03;101331.51;;;32.45;36.29
44044;BME280;29709;52.396;16.796;2023-09-12T11:31:26;101330.17;;;32.37;36.17
44044;BME280;29709;52.396;16.796;2023-09-12T11:34:43;101330.66;;;32.44;36.10
44044;BME280;29709;52.396;16.796;2023-09-12T11:37:59;101329.74;;;32.49;36.34
44044;BME280;29709;52.396;16.796;2023-09-12T11:41:13;101330.58;;;32.50;35.33
44044;BME280;29709;52.396;16.796;2023-09-12T11:44:27;101330.58;;;32.50;36.31
44044;BME280;29709;52.396;16.796;2023-09-12T11:47:42;101333.12;;;32.51;36.33
44044;BME280;29709;52.396;16.796;2023-09-12T11:50:59;101328.43;;;32.41;34.51
44044;BME280;29709;52.396;16.796;2023-09-12T11:54:24;101335.92;;;32.32;33.73
44044;BME280;29709;52.396;16.796;2023-09-12T11:57:37;101327.63;;;32.36;34.70
44044;BME280;29709;52.396;16.796;2023-09-12T12:00:55;101326.77;;;32.35;36.24
44044;BME280;29709;52.396;16.796;2023-09-12T12:04:09;101331.32;;;32.36;35.75
44044;BME280;29709;52.396;16.796;2023-09-12T12:07:23;101328.55;;;32.26;34.56
44044;BME280;29709;52.396;16.796;2023-09-12T12:10:37;101333.09;;;32.27;35.93
44044;BME280;29709;52.396;16.796;2023-09-12T12:14:16;101328.89;;;32.49;35.48
44044;BME280;29709;52.396;16.796;2023-09-12T12:17:19;101329.62;;;32.59;35.56
44044;BME280;29709;52.396;16.796;2023-09-12T12:20:34;101324.31;;;32.53;34.18
44044;BME280;29709;52.396;16.796;2023-09-12T12:27:14;101319.39;;;32.34;35.05
44044;BME280;29709;52.396;16.796;2023-09-12T12:30:32;101324.48;;;32.37;34.45
44044;BME280;29709;52.396;16.796;2023-09-12T12:33:50;101311.48;;;32.26;34.92
44044;BME280;29709;52.396;16.796;2023-09-12T12:37:09;101309.89;;;32.15;34.69
44044;BME280;29709;52.396;16.796;2023-09-12T12:40:26;101312.41;;;32.22;34.21
44044;BME280;29709;52.396;16.796;2023-09-12T12:43:42;101307.41;;;32.37;34.64
44044;BME280;29709;52.396;16.796;2023-09-12T12:46:59;101310.67;;;32.50;33.78
44044;BME280;29709;52.396;16.796;2023-09-12T12:50:20;101304.92;;;32.55;34.51
44044;BME280;29709;52.396;16.796;2023-09-12T12:53:40;101292.43;;;32.51;34.46
44044;BME280;29709;52.396;16.796;2023-09-12T12:56:58;101288.75;;;32.50;34.14
44044;BME280;29709;52.396;16.796;2023-09-12T13:00:17;101283.06;;;32.50;34.75
44044;BME280;29709;52.396;16.796;2023-09-12T13:03:35;101287.24;;;32.58;34.74
44044;BME280;29709;52.396;16.796;2023-09-12T13:06:50;101290.16;;;32.53;34.60
44044;BME280;29709;52.396;16.796;2023-09-12T13:10:03;101286.83;;;32.45;33.86
44044;BME280;29709;52.396;16.796;2023-09-12T13:13:20;101284.75;;;32.51;34.86
44044;BME280;29709;52.396;16.796;2023-09-12T13:16:39;101286.93;;;32.59;35.22
44044;BME280;29709;52.396;16.796;2023-09-12T13:19:58;101278.78;;;32.53;35.05
44044;BME280;29709;52.396;16.796;2023-09-12T13:23:12;101274.73;;;32.35;33.53
44044;BME280;29709;52.396;16.796;2023-09-12T13:26:28;101268.71;;;32.12;35.13
44044;BME280;29709;52.396;16.796;2023-09-12T13:29:43;101271.01;;;32.10;34.98
44044;BME280;29709;52.396;16.796;2023-09-12T13:32:56;101254.28;;;32.04;36.00
44044;BME280;29709;52.396;16.796;2023-09-12T13:36:09;101267.55;;;32.13;34.45
44044;BME280;29709;52.396;16.796;2023-09-12T13:39:23;101270.20;;;32.05;36.07
44044;BME280;29709;52.396;16.796;2023-09-12T13:42:36;101274.43;;;32.07;34.97
44044;BME280;29709;52.396;16.796;2023-09-12T13:45:49;101264.86;;;31.98;35.61
44044;BME280;29709;52.396;16.796;2023-09-12T13:49:02;101267.47;;;31.95;36.61
44044;BME280;29709;52.396;16.796;2023-09-12T13:52:16;101261.24;;;31.93;35.77
44044;BME280;29709;52.396;16.796;2023-09-12T13:55:30;101269.91;;;31.77;35.88
44044;BME280;29709;52.396;16.796;2023-09-12T13:58:43;101271.09;;;31.71;36.91
44044;BME280;29709;52.396;16.796;2023-09-12T14:02:00;101272.48;;;31.74;36.54
44044;BME280;29709;52.396;16.796;2023-09-12T14:05:13;101270.57;;;31.64;36.29
44044;BME280;29709;52.396;16.796;2023-09-12T14:08:26;101272.87;;;31.62;36.67
44044;BME280;29709;52.396;16.796;2023-09-12T14:11:40;101275.51;;;31.53;35.86
44044;BME280;29709;52.396;16.796;2023-09-12T14:14:53;101269.30;;;31.46;36.78
44044;BME280;29709;52.396;16.796;2023-09-12T14:18:06;101264.98;;;31.54;36.85
44044;BME280;29709;52.396;16.796;2023-09-12T14:21:20;101262.74;;;31.51;36.77
44044;BME280;29709;52.396;16.796;2023-09-12T14:24:33;101261.27;;;31.58;37.43
44044;BME280;29709;52.396;16.796;2023-09-12T14:27:46;101264.05;;;31.64;36.93
44044;BME280;29709;52.396;16.796;2023-09-12T14:31:00;101262.34;;;31.63;36.98
44044;BME280;29709;52.396;16.796;2023-09-12T14:34:14;101271.78;;;31.58;37.43
44044;BME280;29709;52.396;16.796;2023-09-12T14:37:27;101272.66;;;31.53;37.42
44044;BME280;29709;52.396;16.796;2023-09-12T14:40:40;101272.97;;;31.52;36.35
44044;BME280;29709;52.396;16.796;2023-09-12T14:43:54;101280.11;;;31.44;36.88
44044;BME280;29709;52.396;16.796;2023-09-12T14:47:07;101278.75;;;31.37;37.26
44044;BME280;29709;52.396;16.796;2023-09-12T14:50:21;101277.66;;;31.33;37.01
44044;BME280;29709;52.396;16.796;2023-09-12T14:53:38;101274.30;;;31.25;36.69
44044;BME280;29709;52.396;16.796;2023-09-12T14:56:57;101276.61;;;31.18;37.08
44044;BME280;29709;52.396;16.796;2023-09-12T15:00:11;101278.30;;;31.19;37.14
44044;BME280;29709;52.396;16.796;2023-09-12T15:03:30;101277.22;;;31.10;37.19
44044;BME280;29709;52.396;16.796;2023-09-12T15:06:44;101281.82;;;31.01;37.30
44044;BME280;29709;52.396;16.796;2023-09-12T15:09:57;101280.74;;;30.92;37.82
44044;BME280;29709;52.396;16.796;2023-09-12T15:13:11;101278.50;;;30.89;37.84
44044;BME280;29709;52.396;16.796;2023-09-12T15:16:26;101278.00;;;30.77;37.78
44044;BME280;29709;52.396;16.796;2023-09-12T15:19:40;101276.32;;;30.70;39.41
44044;BME280;29709;52.396;16.796;2023-09-12T15:22:55;101270.41;;;30.57;37.79
44044;BME280;29709;52.396;16.796;2023-09-12T15:26:11;101265.04;;;30.50;38.26
44044;BME280;29709;52.396;16.796;2023-09-12T15:29:26;101279.81;;;30.47;38.70
44044;BME280;29709;52.396;16.796;2023-09-12T15:32:39;101272.45;;;30.41;38.37
44044;BME280;29709;52.396;16.796;2023-09-12T15:35:54;101266.81;;;30.36;39.38
44044;BME280;29709;52.396;16.796;2023-09-12T15:39:10;101267.95;;;30.30;40.24
44044;BME280;29709;52.396;16.796;2023-09-12T15:42:25;101273.65;;;30.20;40.55
44044;BME280;29709;52.396;16.796;2023-09-12T15:45:38;101273.68;;;30.09;41.29
44044;BME280;29709;52.396;16.796;2023-09-12T15:48:53;101276.24;;;29.96;42.56
44044;BME280;29709;52.396;16.796;2023-09-12T15:52:08;101267.47;;;29.87;43.86
44044;BME280;29709;52.396;16.796;2023-09-12T15:55:24;101258.41;;;29.80;43.72
44044;BME280;29709;52.396;16.796;2023-09-12T15:58:37;101260.97;;;29.76;43.19
44044;BME280;29709;52.396;16.796;2023-09-12T16:01:51;101264.66;;;29.67;44.42
44044;BME280;29709;52.396;16.796;2023-09-12T16:05:05;101264.10;;;29.54;43.66
44044;BME280;29709;52.396;16.796;2023-09-12T16:08:20;101262.66;;;29.42;45.39
44044;BME280;29709;52.396;16.796;2023-09-12T16:11:33;101262.38;;;29.33;45.75
44044;BME280;29709;52.396;16.796;2023-09-12T16:14:54;101260.95;;;29.25;45.69
44044;BME280;29709;52.396;16.796;2023-09-12T16:18:11;101270.27;;;29.16;47.12
44044;BME280;29709;52.396;16.796;2023-09-12T16:21:24;101271.98;;;29.12;46.69
44044;BME280;29709;52.396;16.796;2023-09-12T16:24:40;101275.95;;;29.11;47.69
44044;BME280;29709;52.396;16.796;2023-09-12T16:27:55;101266.59;;;29.05;48.46
44044;BME280;29709;52.396;16.796;2023-09-12T16:31:08;101271.69;;;28.98;50.82
44044;BME280;29709;52.396;16.796;2023-09-12T16:34:21;101273.62;;;28.87;48.98
44044;BME280;29709;52.396;16.796;2023-09-12T16:37:35;101276.97;;;28.84;49.74
44044;BME280;29709;52.396;16.796;2023-09-12T16:40:48;101267.88;;;28.72;49.31
44044;BME280;29709;52.396;16.796;2023-09-12T16:44:02;101270.08;;;28.55;50.11
44044;BME280;29709;52.396;16.796;2023-09-12T16:47:15;101263.24;;;28.35;53.71
44044;BME280;29709;52.396;16.796;2023-09-12T16:50:28;101261.43;;;28.24;53.71
44044;BME280;29709;52.396;16.796;2023-09-12T16:53:42;101267.02;;;28.09;54.20
44044;BME280;29709;52.396;16.796;2023-09-12T16:56:56;101275.43;;;27.99;54.77
44044;BME280;29709;52.396;16.796;2023-09-12T17:00:10;101264.06;;;27.88;54.36
44044;BME280;29709;52.396;16.796;2023-09-12T17:03:23;101269.37;;;27.80;54.32
44044;BME280;29709;52.396;16.796;2023-09-12T17:06:37;101259.11;;;27.69;54.09
44044;BME280;29709;52.396;16.796;2023-09-12T17:09:51;101266.05;;;27.56;55.68
44044;BME280;29709;52.396;16.796;2023-09-12T17:13:04;101265.06;;;27.40;55.87